CA-0106 weather

CLOSED Crooked Lake Airport
Nunavut, Canada

Public forecast

Using degrees Celsius for public forecast. Weather courtesy of forecast.io.

METAR (pilot weather report)

Report is more than 2 hours old.

Closest report is Arctic Bay Airport, 238.8 nm (442.3 km) ENE. Retrieved 2019/04/18 22:00 UTC (3 hours ago):

CYAB 182200Z 31007KT 20SM FEW004 SCT017 BKN210 M25/M29 A2990 RMK SC1SC2CI3 LAST STFD OBS/NXT 201700Z VIS LWR SE S SW W 10 -SN CIG ESTD SLP131

TAF (pilot weather forecast)

Closest forecast is Arctic Bay Airport, 238.8 nm (442.3 km) ENE. Retrieved 2019/04/18 19:00 UTC (6 hours ago):

TAF CYAB 181838Z 1819/1822 VRB03KT P6SM SCT220 RMK NXT FCST WILL BE ISSUED AT 191245Z